Time;durP1;ratioP1;P1;durP2;ratioP2;P2;SDS_P1;SDS_P2;PMS_P1;PMS_P2;Temp;Humidity;BMP_temperature;BMP_pressure;BME280_temperature;BME280_humidity;BME280_pressure;Samples;Min_cycle;Max_cycle;Signal;HPM_P1;HPM_P2
2023/04/26 00:01:00;;;;;;;29.70;2.23;;;;;;;24.52;47.01;99239.03;7312695;19;129038;-63
2023/04/26 00:03:26;;;;;;;38.75;2.33;;;;;;;24.53;46.19;99243.28;7308767;19;130199;-64
2023/04/26 00:05:51;;;;;;;46.47;2.70;;;;;;;24.52;46.70;99246.09;7310035;19;129083;-66
2023/04/26 00:08:16;;;;;;;34.13;2.27;;;;;;;24.58;46.59;99242.81;7311293;19;129294;-65
2023/04/26 00:10:42;;;;;;;26.30;1.57;;;;;;;24.53;47.84;99235.41;7315367;19;128806;-63
2023/04/26 00:13:07;;;;;;;41.23;2.60;;;;;;;24.53;49.79;99248.53;7307697;19;129086;-65
2023/04/26 00:15:32;;;;;;;62.57;4.17;;;;;;;24.55;50.73;99246.56;7310820;19;129045;-64
2023/04/26 00:17:58;;;;;;;37.58;2.42;;;;;;;24.53;51.42;99242.47;7311599;19;129611;-65
2023/04/26 00:20:23;;;;;;;35.13;2.37;;;;;;;24.61;50.64;99255.59;7312240;19;129547;-63
2023/04/26 00:22:49;;;;;;;46.30;2.80;;;;;;;24.52;51.58;99235.56;7308264;19;129291;-61
2023/04/26 00:25:14;;;;;;;36.63;2.53;;;;;;;24.64;51.74;99252.63;7311139;19;129348;-65
2023/04/26 00:27:40;;;;;;;31.52;2.13;;;;;;;24.64;51.85;99247.38;7310927;19;129538;-62
2023/04/26 00:30:06;;;;;;;25.73;1.77;;;;;;;24.63;51.83;99254.44;7312124;19;129164;-63
2023/04/26 00:32:34;;;;;;;70.20;4.20;;;;;;;24.64;51.48;99255.28;7308461;19;130159;-60
2023/04/26 00:34:59;;;;;;;38.33;2.47;;;;;;;24.65;50.13;99262.16;7313008;19;129536;-63
2023/04/26 00:37:24;;;;;;;43.10;2.73;;;;;;;24.43;46.83;99259.22;7311250;19;129620;-65
2023/04/26 00:39:50;;;;;;;27.27;1.70;;;;;;;24.31;46.38;99244.78;7312981;19;131517;-63
2023/04/26 00:42:15;;;;;;;41.17;2.40;;;;;;;24.36;45.80;99263.50;7310604;19;129145;-65
2023/04/26 00:44:41;;;;;;;22.70;1.43;;;;;;;24.41;45.93;99263.84;7311117;19;129725;-65
2023/04/26 00:47:07;;;;;;;19.33;1.43;;;;;;;24.47;48.57;99259.72;7306869;19;129113;-63
2023/04/26 00:49:32;;;;;;;29.03;1.97;;;;;;;24.46;50.31;99269.41;7312622;19;129940;-65
2023/04/26 00:51:57;;;;;;;68.73;3.97;;;;;;;24.48;50.68;99271.06;7309437;19;129105;-65
2023/04/26 00:54:24;;;;;;;42.00;2.50;;;;;;;24.48;50.39;99262.19;7311642;19;129401;-66
2023/04/26 00:56:51;;;;;;;7.78;0.65;;;;;;;24.37;51.14;99249.41;7308917;19;129809;-63
2023/04/26 00:59:19;;;;;;;26.90;1.77;;;;;;;24.51;51.45;99270.72;7310810;19;129149;-63
2023/04/26 01:01:44;;;;;;;43.38;2.58;;;;;;;24.42;50.76;99252.34;7309943;19;130476;-65
2023/04/26 01:04:11;;;;;;;17.20;1.30;;;;;;;24.52;51.04;99272.38;7310605;19;129398;-62
2023/04/26 01:06:38;;;;;;;42.03;2.80;;;;;;;24.51;51.32;99276.00;7309840;19;129625;-64
2023/04/26 01:09:07;;;;;;;34.97;2.15;;;;;;;24.54;51.38;99275.66;7311456;19;129503;-66
2023/04/26 01:11:36;;;;;;;46.83;3.03;;;;;;;24.54;51.55;99276.47;7309164;19;130430;-64
2023/04/26 01:14:03;;;;;;;37.17;2.37;;;;;;;24.43;47.97;99269.75;7309855;19;129675;-62
2023/04/26 01:16:29;;;;;;;37.65;2.38;;;;;;;24.22;46.75;99277.31;7308614;19;129606;-61
2023/04/26 01:18:55;;;;;;;33.95;2.08;;;;;;;24.27;46.02;99277.66;7310626;19;129259;-63
2023/04/26 01:21:23;;;;;;;66.88;3.60;;;;;;;24.25;46.12;99278.78;7310766;19;130655;-63
2023/04/26 01:23:49;;;;;;;40.20;2.22;;;;;;;24.27;46.00;99282.06;7309305;19;129985;-66
2023/04/26 01:26:15;;;;;;;28.23;1.67;;;;;;;24.31;48.92;99271.06;7307515;19;129251;-63
2023/04/26 01:28:41;;;;;;;28.60;1.90;;;;;;;24.31;49.35;99271.06;7309904;19;129215;-66
2023/04/26 01:31:06;;;;;;;29.37;1.93;;;;;;;24.35;49.98;99267.13;7310009;19;128914;-63
2023/04/26 01:33:31;;;;;;;43.97;2.85;;;;;;;24.43;50.14;99277.63;7308091;19;129547;-61
2023/04/26 01:35:57;;;;;;;18.83;1.57;;;;;;;24.48;49.92;99281.59;7315233;19;129547;-63
2023/04/26 01:38:22;;;;;;;35.45;2.15;;;;;;;24.48;50.25;99282.38;7317296;19;129064;-64
2023/04/26 01:40:48;;;;;;;41.73;2.53;;;;;;;24.37;50.50;99265.16;7315152;19;129127;-63
2023/04/26 01:43:14;;;;;;;34.40;2.03;;;;;;;24.48;50.71;99281.59;7314261;19;129369;-65
2023/04/26 01:45:40;;;;;;;31.92;2.00;;;;;;;24.54;50.75;99280.91;7313865;19;129257;-62
2023/04/26 01:48:05;;;;;;;44.80;2.67;;;;;;;24.53;50.86;99280.06;7315965;19;129047;-64
2023/04/26 01:50:31;;;;;;;51.87;3.03;;;;;;;24.53;51.10;99276.66;7317467;19;129267;-63
2023/04/26 01:53:03;;;;;;;29.23;1.88;;;;;;;24.12;46.84;99266.16;7314767;19;129400;-63
2023/04/26 01:55:28;;;;;;;85.57;5.63;;;;;;;24.12;47.25;99286.34;7314091;19;129721;-61
2023/04/26 01:57:54;;;;;;;29.07;1.87;;;;;;;24.08;46.90;99270.06;7316161;19;129340;-61
2023/04/26 02:00:19;;;;;;;53.00;2.93;;;;;;;24.17;45.76;99290.13;7316219;19;129849;-63
2023/04/26 02:02:45;;;;;;;33.23;2.10;;;;;;;24.18;46.25;99291.75;7314969;19;129001;-63
2023/04/26 02:05:11;;;;;;;53.77;3.40;;;;;;;24.18;49.41;99296.22;7315132;19;129148;-63
2023/04/26 02:07:36;;;;;;;36.80;2.23;;;;;;;24.23;49.99;99286.00;7314447;19;130038;-61
2023/04/26 02:10:02;;;;;;;54.83;3.10;;;;;;;24.34;50.68;99294.41;7315704;19;129106;-64
2023/04/26 02:12:27;;;;;;;38.00;2.47;;;;;;;24.36;50.43;99300.28;7312839;19;128989;-61
2023/04/26 02:14:52;;;;;;;32.63;1.97;;;;;;;24.39;50.49;99299.97;7314409;19;129490;-64
2023/04/26 02:17:20;;;;;;;54.03;3.20;;;;;;;24.43;50.68;99298.66;7313592;19;129794;-63
2023/04/26 02:19:45;;;;;;;35.03;2.13;;;;;;;24.43;50.53;99290.78;7315964;19;129121;-61
2023/04/26 02:22:12;;;;;;;42.50;2.70;;;;;;;24.44;51.21;99304.75;7313662;19;129569;-65
2023/04/26 02:24:37;;;;;;;31.52;1.95;;;;;;;24.43;51.46;99298.66;7315561;19;129486;-63
2023/04/26 02:27:04;;;;;;;56.03;3.13;;;;;;;24.46;51.40;99295.69;7312051;19;129236;-66
2023/04/26 02:29:29;;;;;;;44.60;2.88;;;;;;;24.06;47.71;99293.06;7313493;19;129014;-61
2023/04/26 02:31:55;;;;;;;49.27;3.10;;;;;;;23.98;46.78;99281.75;7313770;19;129509;-63
2023/04/26 02:34:20;;;;;;;25.77;1.70;;;;;;;24.11;46.24;99301.25;7314496;19;129056;-61
2023/04/26 02:36:46;;;;;;;44.77;2.40;;;;;;;24.07;46.39;99294.72;7314490;19;129021;-62
2023/04/26 02:39:12;;;;;;;32.03;1.83;;;;;;;24.17;47.31;99290.13;7315673;19;129329;-62
2023/04/26 02:41:37;;;;;;;34.57;2.23;;;;;;;24.08;49.76;99301.59;7312658;19;131047;-65
2023/04/26 02:44:03;;;;;;;32.70;1.97;;;;;;;24.16;49.85;99285.03;7313953;19;130241;-62
2023/04/26 02:46:28;;;;;;;70.30;4.17;;;;;;;24.22;49.76;99292.25;7309456;19;129227;-60
2023/04/26 02:48:53;;;;;;;28.97;1.70;;;;;;;24.26;50.27;99293.56;7315287;19;130613;-63
2023/04/26 02:51:19;;;;;;;21.40;1.37;;;;;;;24.28;50.33;99287.16;7314557;19;129230;-64
2023/04/26 02:53:44;;;;;;;26.98;1.60;;;;;;;24.32;50.47;99298.16;7313113;19;129768;-64
2023/04/26 02:56:10;;;;;;;59.13;3.30;;;;;;;24.21;50.80;99270.41;7313624;19;129170;-63
2023/04/26 02:58:35;;;;;;;8.77;0.90;;;;;;;24.32;50.35;99290.28;7317324;19;129007;-65
2023/04/26 03:01:01;;;;;;;53.73;3.27;;;;;;;24.35;51.25;99298.66;7316280;19;129645;-62
2023/04/26 03:03:26;;;;;;;46.10;2.93;;;;;;;24.38;51.14;99297.50;7310445;19;129186;-63
2023/04/26 03:05:51;;;;;;;39.83;2.40;;;;;;;24.06;46.91;99303.59;7312684;19;129014;-62
2023/04/26 03:08:17;;;;;;;26.25;1.58;;;;;;;23.95;46.40;99301.22;7314324;19;128830;-65
2023/04/26 03:10:45;;;;;;;24.60;1.40;;;;;;;23.94;46.32;99299.59;7314020;19;129496;-62
2023/04/26 03:13:10;;;;;;;43.92;2.55;;;;;;;23.89;46.58;99294.00;7310660;19;129959;-61
2023/04/26 03:15:36;;;;;;;48.67;2.83;;;;;;;24.08;47.33;99301.59;7313519;19;129434;-65
2023/04/26 03:18:01;;;;;;;44.60;2.77;;;;;;;23.98;49.06;99300.91;7313793;19;129132;-63
2023/04/26 03:20:26;;;;;;;34.97;2.33;;;;;;;24.04;50.33;99308.16;7312257;19;131958;-63
2023/04/26 03:22:52;;;;;;;44.85;2.40;;;;;;;24.08;50.29;99309.47;7311525;19;129128;-61
2023/04/26 03:25:17;;;;;;;70.53;4.53;;;;;;;24.14;50.20;99311.47;7310124;19;129023;-65
2023/04/26 03:27:43;;;;;;;25.60;1.53;;;;;;;24.19;50.73;99313.59;7314498;19;129005;-64
2023/04/26 03:30:08;;;;;;;48.35;3.10;;;;;;;24.20;50.32;99313.44;7314718;19;128964;-63
2023/04/26 03:32:34;;;;;;;53.43;2.97;;;;;;;24.21;50.23;99309.81;7311163;19;130132;-64
2023/04/26 03:34:59;;;;;;;37.80;2.40;;;;;;;24.16;50.60;99312.09;7313547;19;128841;-65
2023/04/26 03:37:25;;;;;;;44.10;2.60;;;;;;;23.91;50.10;99313.03;7313441;19;128843;-63
2023/04/26 03:39:52;;;;;;;28.43;1.80;;;;;;;23.56;50.63;99315.06;7313615;19;129112;-61
2023/04/26 03:42:19;;;;;;;50.50;2.78;;;;;;;23.61;50.19;99318.88;7310380;19;129251;-61
2023/04/26 03:44:44;;;;;;;;;;;;;;;24.26;49.52;99314.59;7314243;19;129002;-62
2023/04/26 03:47:09;;;;;;;33.90;2.03;;;;;;;24.27;47.40;99313.59;7310234;19;129057;-59
2023/04/26 03:49:35;;;;;;;35.27;2.30;;;;;;;24.29;46.64;99299.31;7312070;19;129407;-62
2023/04/26 03:52:00;;;;;;;55.30;3.43;;;;;;;23.96;48.65;99318.63;7310178;19;129922;-62
2023/04/26 03:54:25;;;;;;;35.53;2.23;;;;;;;23.93;49.40;99318.94;7313762;19;130289;-62
2023/04/26 03:56:51;;;;;;;30.77;1.90;;;;;;;23.92;49.30;99326.97;7312805;19;129266;-59
2023/04/26 03:59:16;;;;;;;27.77;1.63;;;;;;;23.98;49.22;99324.56;7314666;19;130053;-67
2023/04/26 04:01:41;;;;;;;47.65;2.92;;;;;;;24.05;49.63;99327.34;7310475;19;129599;-61
2023/04/26 04:04:07;;;;;;;36.17;2.23;;;;;;;24.08;48.71;99322.59;7312433;19;128825;-65
2023/04/26 04:06:32;;;;;;;37.17;2.30;;;;;;;24.18;49.39;99332.97;7310518;19;129578;-61
2023/04/26 04:08:57;;;;;;;45.95;2.80;;;;;;;24.25;48.92;99334.78;7312513;19;130006;-61
2023/04/26 04:11:23;;;;;;;48.92;2.83;;;;;;;24.35;48.56;99335.44;7312647;19;129678;-64
2023/04/26 04:13:48;;;;;;;26.40;1.67;;;;;;;24.35;49.15;99334.63;7311690;19;129025;-64
2023/04/26 04:16:14;;;;;;;36.50;2.30;;;;;;;24.42;49.57;99328.56;7309000;19;130365;-61
2023/04/26 04:18:39;;;;;;;70.27;3.80;;;;;;;24.43;49.25;99332.81;7310147;19;129571;-62
2023/04/26 04:21:05;;;;;;;37.53;2.50;;;;;;;24.46;48.42;99332.47;7312911;19;129233;-63
2023/04/26 04:23:33;;;;;;;38.77;2.43;;;;;;;24.36;48.81;99337.06;7310064;19;129504;-63
2023/04/26 04:25:59;;;;;;;23.23;1.55;;;;;;;24.33;49.08;99337.41;7308303;19;129043;-61
2023/04/26 04:28:24;;;;;;;55.30;3.23;;;;;;;24.23;49.05;99339.38;7310157;19;131679;-62
2023/04/26 04:30:49;;;;;;;26.10;1.90;;;;;;;24.20;48.41;99342.31;7308029;19;131773;-64
2023/04/26 04:33:16;;;;;;;26.70;1.63;;;;;;;24.17;49.06;99342.66;7307748;19;129534;-64
2023/04/26 04:35:42;;;;;;;38.42;2.47;;;;;;;24.16;49.08;99342.81;7308033;19;130157;-63
2023/04/26 04:38:08;;;;;;;34.37;2.10;;;;;;;24.13;48.99;99346.56;7309956;19;129138;-63
2023/04/26 04:40:33;;;;;;;44.27;2.93;;;;;;;24.10;49.25;99349.53;7310165;19;129667;-62
2023/04/26 04:42:59;;;;;;;36.30;2.17;;;;;;;24.03;49.05;99345.91;7307322;19;129911;-61
2023/04/26 04:45:25;;;;;;;102.13;6.70;;;;;;;23.98;49.65;99353.44;7307924;19;129144;-59
2023/04/26 04:47:53;;;;;;;35.90;2.10;;;;;;;24.38;49.46;99353.50;7308517;19;129372;-63
2023/04/26 04:50:18;;;;;;;43.53;2.53;;;;;;;24.63;48.02;99353.50;7311662;19;130374;-61
2023/04/26 04:52:44;;;;;;;13.00;1.07;;;;;;;24.68;47.31;99351.22;7309697;19;129591;-60
2023/04/26 04:55:09;;;;;;;64.90;4.00;;;;;;;24.08;48.36;99343.63;7305411;19;129464;-64
2023/04/26 04:57:35;;;;;;;69.77;4.03;;;;;;;23.95;48.92;99360.78;7308152;19;129442;-64
2023/04/26 05:00:08;;;;;;;38.30;2.57;;;;;;;23.72;50.13;99342.19;7310364;19;129539;-60
2023/04/26 05:02:34;;;;;;;63.22;3.85;;;;;;;23.71;50.54;99361.56;7307131;19;129536;-59
2023/04/26 05:05:00;;;;;;;47.00;2.93;;;;;;;23.72;50.72;99375.47;7309181;19;129377;-63
2023/04/26 05:07:26;;;;;;;48.65;2.88;;;;;;;23.74;50.02;99368.28;7301676;19;129095;-61
2023/04/26 05:09:51;;;;;;;28.03;2.00;;;;;;;23.66;50.35;99371.69;7316174;19;129641;-63
2023/04/26 05:12:16;;;;;;;34.37;2.23;;;;;;;23.62;50.87;99373.00;7316299;19;129717;-63
2023/04/26 05:14:42;;;;;;;35.03;2.27;;;;;;;23.61;50.30;99376.59;7317010;19;129606;-63
2023/04/26 05:17:07;;;;;;;87.80;5.10;;;;;;;23.55;50.36;99368.53;7309765;19;130165;-63
2023/04/26 05:19:32;;;;;;;38.00;2.47;;;;;;;24.00;49.43;99380.38;7315429;19;130160;-62
2023/04/26 05:21:58;;;;;;;57.23;3.83;;;;;;;24.30;47.79;99378.94;7314912;19;129057;-63
2023/04/26 05:24:23;;;;;;;45.42;2.88;;;;;;;24.42;46.34;99367.16;7316938;19;129263;-64
2023/04/26 05:26:48;;;;;;;45.75;2.83;;;;;;;24.10;48.44;99388.09;7315705;19;129607;-59
2023/04/26 05:29:14;;;;;;;43.73;2.70;;;;;;;23.81;49.06;99380.63;7316670;19;129583;-63
2023/04/26 05:31:39;;;;;;;36.47;2.53;;;;;;;23.58;49.79;99379.56;7317554;19;129575;-63
2023/04/26 05:34:05;;;;;;;47.27;2.83;;;;;;;23.40;50.15;99378.81;7315970;19;129278;-62
2023/04/26 05:36:31;;;;;;;44.40;2.67;;;;;;;23.42;50.83;99386.53;7315582;19;129025;-65
2023/04/26 05:38:56;;;;;;;32.22;2.28;;;;;;;23.36;50.60;99387.13;7317069;19;129904;-62
2023/04/26 05:41:22;;;;;;;47.07;3.33;;;;;;;23.34;51.41;99389.91;7316376;19;128878;-64
2023/04/26 05:43:47;;;;;;;43.92;2.80;;;;;;;23.30;50.81;99393.84;7316283;19;129283;-63
2023/04/26 05:46:12;;;;;;;31.83;2.07;;;;;;;23.23;51.79;99392.78;7315121;19;129459;-66
2023/04/26 05:48:38;;;;;;;30.73;1.90;;;;;;;23.14;51.46;99393.69;7317048;19;129191;-63
2023/04/26 05:51:03;;;;;;;34.60;2.23;;;;;;;23.58;50.61;99407.59;7319290;19;129243;-63
2023/04/26 05:53:29;;;;;;;46.43;3.33;;;;;;;23.92;48.14;99411.00;7313118;19;128971;-63
2023/04/26 05:55:54;;;;;;;34.50;2.13;;;;;;;24.02;46.99;99417.81;7315917;19;129491;-64
2023/04/26 05:58:19;;;;;;;45.23;2.67;;;;;;;24.08;46.25;99401.41;7316543;19;129701;-62
2023/04/26 06:00:45;;;;;;;15.97;1.27;;;;;;;23.93;49.21;99408.22;7316266;19;129067;-63
2023/04/26 06:03:11;;;;;;;55.57;3.23;;;;;;;23.77;50.20;99413.41;7313745;19;129579;-62
2023/04/26 06:05:37;;;;;;;27.40;1.80;;;;;;;23.60;50.90;99411.69;7316236;19;128939;-61
2023/04/26 06:08:03;;;;;;;40.07;2.57;;;;;;;23.51;51.76;99404.75;7315426;19;129261;-61
2023/04/26 06:10:28;;;;;;;49.07;3.17;;;;;;;23.42;51.49;99418.00;7316300;19;129093;-63
2023/04/26 06:12:53;;;;;;;37.07;2.27;;;;;;;23.36;51.70;99408.94;7313665;19;129379;-63
2023/04/26 06:15:19;;;;;;;86.87;5.60;;;;;;;23.39;51.60;99415.69;7315190;19;129586;-61
2023/04/26 06:17:44;;;;;;;24.58;1.85;;;;;;;23.35;52.32;99412.56;7316044;19;129943;-61
2023/04/26 06:20:09;;;;;;;49.97;2.93;;;;;;;23.42;52.78;99423.25;7315034;19;128929;-64
2023/04/26 06:22:36;;;;;;;28.73;2.07;;;;;;;23.39;52.85;99419.13;7313934;19;128840;-61
2023/04/26 06:25:03;;;;;;;35.55;2.38;;;;;;;23.49;49.77;99409.34;7316103;19;129729;-65
2023/04/26 06:27:28;;;;;;;;;;;;;;;23.55;48.51;99411.31;7312344;19;129639;-61
2023/04/26 06:29:54;;;;;;;33.43;2.13;;;;;;;23.77;47.82;99418.66;7315573;19;128862;-66
2023/04/26 06:32:19;;;;;;;22.70;1.45;;;;;;;23.84;47.27;99419.69;7314915;19;129007;-59
2023/04/26 06:34:44;;;;;;;27.03;1.83;;;;;;;23.86;49.68;99414.28;7315271;19;129929;-62
2023/04/26 06:37:10;;;;;;;36.37;2.50;;;;;;;23.76;50.42;99411.78;7313579;19;129050;-63
2023/04/26 06:39:37;;;;;;;50.07;3.07;;;;;;;23.64;51.08;99418.28;7315026;19;129325;-62
2023/04/26 06:42:03;;;;;;;49.50;3.10;;;;;;;23.60;51.71;99421.38;7313723;19;129585;-62
2023/04/26 06:44:28;;;;;;;39.77;2.90;;;;;;;23.54;52.16;99417.56;7318509;19;129467;-60
2023/04/26 06:46:54;;;;;;;25.25;1.70;;;;;;;23.54;52.45;99424.59;7314641;19;129320;-63
2023/04/26 06:49:20;;;;;;;50.50;2.87;;;;;;;23.47;52.81;99416.53;7314688;19;129580;-60
2023/04/26 06:51:45;;;;;;;35.10;2.43;;;;;;;23.50;53.24;99416.25;7313747;19;128826;-59
2023/04/26 06:54:11;;;;;;;29.25;1.92;;;;;;;23.47;52.45;99427.03;7314754;19;129423;-60
2023/04/26 06:56:36;;;;;;;43.30;2.90;;;;;;;23.53;53.28;99430.84;7313194;19;129770;-62
2023/04/26 06:59:04;;;;;;;47.13;2.88;;;;;;;23.40;53.24;99419.94;7315105;19;128971;-61
2023/04/26 07:01:32;;;;;;;73.88;4.53;;;;;;;23.70;48.36;99427.34;7314587;19;129110;-61
2023/04/26 07:04:02;;;;;;;27.40;1.88;;;;;;;23.79;47.11;99431.63;7313244;19;129170;-63
2023/04/26 07:06:28;;;;;;;41.45;2.58;;;;;;;23.83;46.67;99436.41;7311369;19;129171;-60
2023/04/26 07:08:53;;;;;;;51.80;3.10;;;;;;;23.82;46.83;99426.88;7314351;19;128891;-59
2023/04/26 07:11:19;;;;;;;47.58;2.83;;;;;;;23.88;48.79;99442.00;7314569;19;129406;-61
2023/04/26 07:13:45;;;;;;;23.20;1.60;;;;;;;23.79;50.66;99432.47;7313454;19;129610;-63
2023/04/26 07:16:10;;;;;;;36.23;2.27;;;;;;;23.69;50.68;99441.41;7312733;19;129067;-62
2023/04/26 07:18:35;;;;;;;51.07;3.07;;;;;;;23.69;52.06;99437.00;7313830;19;129437;-61
2023/04/26 07:21:01;;;;;;;34.73;2.53;;;;;;;23.65;52.38;99435.66;7314665;19;129217;-62
2023/04/26 07:23:28;;;;;;;25.97;2.00;;;;;;;23.58;51.92;99437.28;7310517;19;129173;-62
2023/04/26 07:25:53;;;;;;;39.30;2.50;;;;;;;23.59;51.95;99433.66;7312009;19;129036;-61
2023/04/26 07:28:18;;;;;;;46.80;2.80;;;;;;;23.60;52.73;99432.69;7313401;19;129454;-62
2023/04/26 07:30:47;;;;;;;33.20;1.95;;;;;;;23.57;52.85;99432.19;7314460;19;128986;-60
2023/04/26 07:33:12;;;;;;;33.70;2.25;;;;;;;23.58;52.91;99445.16;7309700;19;129125;-60
2023/04/26 07:35:38;;;;;;;40.00;2.70;;;;;;;23.55;53.35;99447.28;7311857;19;129701;-62
2023/04/26 07:38:03;;;;;;;46.58;2.85;;;;;;;23.63;50.15;99436.81;7313430;19;129248;-64
2023/04/26 07:40:30;;;;;;;35.73;2.30;;;;;;;23.71;47.92;99440.31;7313610;19;129583;-61
2023/04/26 07:42:56;;;;;;;28.13;2.00;;;;;;;23.81;47.18;99437.53;7312822;19;129085;-63
2023/04/26 07:45:21;;;;;;;99.13;6.33;;;;;;;23.80;46.57;99439.34;7312536;19;129623;-62
2023/04/26 07:47:46;;;;;;;31.73;1.93;;;;;;;23.85;47.21;99442.31;7312273;19;129357;-61
2023/04/26 07:50:12;;;;;;;26.07;1.83;;;;;;;23.78;49.12;99419.50;7313994;19;130386;-62
2023/04/26 07:52:38;;;;;;;42.17;2.65;;;;;;;23.74;50.59;99439.16;7308808;19;131562;-61
2023/04/26 07:55:04;;;;;;;52.47;3.20;;;;;;;23.74;51.05;99441.78;7311756;19;131872;-62
2023/04/26 07:57:29;;;;;;;42.63;2.67;;;;;;;23.65;51.88;99442.72;7312733;19;129377;-62
2023/04/26 07:59:55;;;;;;;37.15;2.33;;;;;;;23.54;52.59;99420.19;7313671;19;129036;-63
2023/04/26 08:02:20;;;;;;;32.00;2.17;;;;;;;23.57;52.25;99440.88;7309538;19;131938;-59
2023/04/26 08:04:51;;;;;;;44.60;2.70;;;;;;;23.58;52.88;99432.03;7312629;19;129054;-63
2023/04/26 08:07:17;;;;;;;36.97;2.20;;;;;;;23.57;52.48;99430.38;7311115;19;129426;-59
2023/04/26 08:09:43;;;;;;;24.40;1.55;;;;;;;23.59;52.12;99438.09;7313373;19;128993;-62
2023/04/26 08:12:09;;;;;;;34.93;2.40;;;;;;;23.62;52.96;99441.22;7311094;19;130039;-64
2023/04/26 08:14:35;;;;;;;53.72;3.20;;;;;;;23.64;52.63;99447.16;7311809;19;129350;-60
2023/04/26 08:17:01;;;;;;;35.17;2.47;;;;;;;23.57;47.66;99438.25;7311692;19;128965;-61
2023/04/26 08:19:29;;;;;;;41.93;2.43;;;;;;;23.75;47.50;99444.25;7311669;19;129027;-61
2023/04/26 08:21:55;;;;;;;35.95;2.47;;;;;;;23.84;47.09;99435.44;7309997;19;129523;-61
2023/04/26 08:24:20;;;;;;;52.53;2.97;;;;;;;23.98;46.39;99447.97;7312244;19;129127;-62
2023/04/26 08:26:45;;;;;;;9.27;1.00;;;;;;;23.63;49.37;99435.00;7311046;19;129609;-60
2023/04/26 08:29:11;;;;;;;28.77;1.90;;;;;;;23.47;50.04;99445.41;7312506;19;129245;-64
2023/04/26 08:31:36;;;;;;;65.50;4.50;;;;;;;23.42;50.12;99445.03;7311003;19;130375;-60
2023/04/26 08:34:01;;;;;;;49.10;3.00;;;;;;;23.41;50.29;99453.91;7312297;19;129610;-62
2023/04/26 08:36:27;;;;;;;35.83;2.43;;;;;;;23.42;50.62;99455.53;7313117;19;130025;-65
2023/04/26 08:38:53;;;;;;;29.63;2.03;;;;;;;23.24;51.21;99431.13;7315083;19;129046;-61
2023/04/26 08:41:22;;;;;;;32.65;2.20;;;;;;;23.34;50.70;99462.56;7311999;19;129593;-64
2023/04/26 08:43:48;;;;;;;39.25;2.38;;;;;;;23.27;51.11;99457.06;7310716;19;129181;-64
2023/04/26 08:46:17;;;;;;;25.47;1.77;;;;;;;23.24;51.23;99457.34;7309380;19;129702;-64
2023/04/26 08:48:44;;;;;;;17.15;1.42;;;;;;;23.13;51.47;99444.50;7311114;19;129090;-64
2023/04/26 08:51:12;;;;;;;38.10;2.47;;;;;;;23.45;50.99;99447.38;7310283;19;128982;-63
2023/04/26 08:53:37;;;;;;;50.45;3.13;;;;;;;23.91;47.66;99451.38;7305682;19;132839;-64
2023/04/26 08:56:03;;;;;;;14.03;1.37;;;;;;;23.97;47.39;99448.94;7310762;19;129465;-64
2023/04/26 08:58:29;;;;;;;38.07;2.57;;;;;;;24.06;46.65;99448.03;7311334;19;129573;-60
2023/04/26 09:00:55;;;;;;;32.50;2.20;;;;;;;23.68;49.44;99445.88;7311075;19;129058;-63
2023/04/26 09:03:22;;;;;;;42.33;2.63;;;;;;;23.31;50.22;99441.84;7308101;19;129590;-62
2023/04/26 09:05:48;;;;;;;38.50;2.35;;;;;;;23.25;51.09;99448.53;7309897;19;128963;-60
2023/04/26 09:08:18;;;;;;;27.30;1.90;;;;;;;23.15;51.46;99453.84;7308580;19;129243;-63
2023/04/26 09:10:43;;;;;;;31.30;1.75;;;;;;;23.11;51.49;99446.44;7311031;19;129997;-60
2023/04/26 09:13:10;;;;;;;59.90;3.53;;;;;;;23.01;51.42;99451.78;7307139;19;130024;-62
2023/04/26 09:15:35;;;;;;;32.78;2.28;;;;;;;22.98;51.77;99451.25;7309564;19;129335;-64
2023/04/26 09:18:22;;;;;;;32.00;2.23;;;;;;;22.86;53.65;99436.75;7308648;19;129028;-63
2023/04/26 09:21:02;;;;;;;33.50;2.05;;;;;;;22.93;52.14;99464.00;7310045;19;129442;-62
2023/04/26 09:23:28;;;;;;;35.85;2.47;;;;;;;22.92;51.93;99463.16;7305276;19;130331;-63
2023/04/26 09:25:53;;;;;;;49.70;2.83;;;;;;;23.41;48.71;99468.81;7307400;19;129728;-62
2023/04/26 09:28:21;;;;;;;35.60;2.10;;;;;;;23.54;47.81;99435.09;7306230;19;129373;-64
2023/04/26 09:30:47;;;;;;;16.33;1.30;;;;;;;23.71;47.20;99434.22;7310192;19;128964;-61
2023/04/26 09:33:13;;;;;;;31.00;1.98;;;;;;;23.80;47.14;99449.84;7306968;19;129132;-63
2023/04/26 09:35:40;;;;;;;38.70;2.50;;;;;;;23.66;49.59;99437.31;7308933;19;129195;-65
2023/04/26 09:38:09;;;;;;;23.85;1.65;;;;;;;23.56;50.63;99460.22;7311333;19;128796;-65
2023/04/26 09:40:46;;;;;;;32.95;2.13;;;;;;;23.36;52.47;99447.47;7310177;19;129404;-63
2023/04/26 09:43:19;;;;;;;33.50;2.30;;;;;;;23.29;51.74;99449.88;7306559;19;130030;-61
2023/04/26 09:46:03;;;;;;;27.98;1.92;;;;;;;23.19;53.33;99457.81;7308531;19;128914;-61
2023/04/26 09:48:33;;;;;;;34.72;2.25;;;;;;;23.14;52.92;99454.00;7307001;19;129317;-65
2023/04/26 09:51:09;;;;;;;49.92;3.05;;;;;;;23.15;52.28;99459.09;7309466;19;129459;-63
2023/04/26 09:53:40;;;;;;;63.75;3.85;;;;;;;23.07;53.00;99437.25;7305838;19;130104;-63
2023/04/26 09:56:09;;;;;;;33.80;2.20;;;;;;;23.19;54.13;99455.19;7315354;19;128945;-64
2023/04/26 09:58:37;;;;;;;39.67;2.50;;;;;;;23.19;53.14;99459.63;7315894;19;128935;-61
2023/04/26 10:01:03;;;;;;;49.70;3.28;;;;;;;23.20;52.52;99454.22;7316431;19;129522;-62
2023/04/26 10:03:30;;;;;;;57.22;3.50;;;;;;;23.35;49.13;99444.03;7313043;19;129471;-64
2023/04/26 10:05:56;;;;;;;;;;;;;;;23.56;48.38;99449.72;7315600;19;128893;-63
2023/04/26 10:08:21;;;;;;;34.25;2.03;;;;;;;23.58;47.55;99434.66;7312790;19;129717;-63
2023/04/26 10:10:48;;;;;;;29.50;1.83;;;;;;;23.69;47.07;99458.00;7316513;19;129174;-61
2023/04/26 10:13:15;;;;;;;40.58;2.47;;;;;;;23.77;47.61;99450.16;7310768;19;131940;-61
2023/04/26 10:15:41;;;;;;;37.05;2.33;;;;;;;23.62;50.62;99462.22;7314767;19;129196;-62
2023/04/26 10:18:07;;;;;;;32.90;2.20;;;;;;;23.52;51.05;99460.72;7316125;19;129318;-62
2023/04/26 10:20:34;;;;;;;43.47;2.70;;;;;;;23.47;51.07;99458.53;7315184;19;129270;-63
2023/04/26 10:23:01;;;;;;;61.22;3.63;;;;;;;23.40;51.77;99462.75;7312581;19;129175;-61
2023/04/26 10:25:37;;;;;;;63.15;4.22;;;;;;;23.39;52.99;99458.47;7315106;19;129251;-64
2023/04/26 10:28:04;;;;;;;45.33;2.90;;;;;;;23.42;51.84;99450.28;7313913;19;128985;-61
2023/04/26 10:30:29;;;;;;;22.77;1.87;;;;;;;23.23;51.05;99460.97;7315757;19;129451;-61
2023/04/26 10:32:54;;;;;;;40.73;2.47;;;;;;;22.98;51.65;99456.50;7315317;19;129311;-64
2023/04/26 10:35:21;;;;;;;116.07;7.07;;;;;;;22.96;52.21;99453.22;7313512;19;129097;-61
2023/04/26 10:37:59;;;;;;;;;;;;;;;22.96;52.10;99459.28;7318001;19;129166;-63
2023/04/26 10:40:30;;;;;;;18.42;1.35;;;;;;;23.30;52.23;99453.34;7315315;19;130027;-65
2023/04/26 10:43:14;;;;;;;30.00;1.83;;;;;;;23.75;51.47;99452.13;7312092;19;129705;-64
2023/04/26 10:45:44;;;;;;;16.98;1.40;;;;;;;23.93;49.16;99450.22;7313745;19;129279;-64
2023/04/26 10:48:17;;;;;;;48.67;2.80;;;;;;;23.79;50.10;99445.59;7312883;19;129662;-64
2023/04/26 10:51:01;;;;;;;45.15;2.63;;;;;;;23.47;49.97;99466.41;7315058;19;129512;-64
2023/04/26 10:53:30;;;;;;;42.28;2.72;;;;;;;23.35;50.89;99470.28;7312314;19;129515;-66
2023/04/26 10:55:56;;;;;;;31.90;2.03;;;;;;;23.27;51.04;99459.69;7313611;19;129259;-63
2023/04/26 10:58:32;;;;;;;32.77;2.20;;;;;;;23.17;50.90;99461.59;7314976;19;129067;-61
2023/04/26 11:01:05;;;;;;;42.83;2.67;;;;;;;23.10;51.85;99448.28;7314280;19;129126;-63
2023/04/26 11:03:31;;;;;;;45.72;2.90;;;;;;;23.06;51.30;99457.41;7311407;19;129476;-63
2023/04/26 11:05:56;;;;;;;39.73;2.70;;;;;;;22.95;51.88;99452.41;7310971;19;128955;-61
2023/04/26 11:08:31;;;;;;;25.83;1.57;;;;;;;22.92;52.87;99447.44;7313446;19;129078;-63
2023/04/26 11:11:03;;;;;;;28.58;1.85;;;;;;;22.93;51.85;99456.13;7314066;19;130497;-63
2023/04/26 11:13:35;;;;;;;42.10;2.53;;;;;;;23.43;49.76;99451.13;7310833;19;129175;-63
2023/04/26 11:16:02;;;;;;;53.08;3.28;;;;;;;23.75;48.03;99454.75;7313119;19;129039;-60